Current Weather Conditions: station 46183

sailwx.info

Wind from 270 at 7 knots gusting 9

Wave height 1.1 meters (3 feet), 9 second period

Air temperature 8.7° C

Last reported at 2017-Apr-30 19:00 UTC.
Time now 2017-Apr-30 20:41 UTC

Location: N 53°36' W 131°06'.
View on Google Maps.

See reports from other nearby stations

  
Tides and Currents Weather Stations Pressure Air Temp Water Temp Dewpoint Dewpoint Depression Visibility Wind Speed Wind Dir Waves Ship Positions
date/time (UTC)wind fromknots sea level pressurealtimeterstation pressurevisibilityair tempwater tempwave heightnotes
2017-Apr-30 19:00 270 7 gusting 9 8.7 1.1
2017-Apr-30 18:00 280 13 gusting 15 8.4 1.2
2017-Apr-30 17:00 280 15 gusting 19 8.0 1.3
2017-Apr-30 16:00 300 17 gusting 21 7.9 1.3
2017-Apr-30 15:00 290 19 gusting 23 7.6 1.4
2017-Apr-30 14:00 310 15 gusting 21 7.3 1.5
2017-Apr-30 13:00 320 15 gusting 19 7.1 1.7
2017-Apr-30 12:00 320 17 gusting 21 6.9 1.9
2017-Apr-30 11:00 320 15 gusting 19 6.6 2.0
2017-Apr-30 10:00 290 9 gusting 13 8.0 2.2
2017-Apr-30 09:00 250 13 gusting 17 7.2 2.3
2017-Apr-30 08:00 260 13 gusting 15 8.1 2.4
2017-Apr-30 07:00 260 7 gusting 11 8.3 3.0
2017-Apr-30 06:00 210 5 gusting 7 8.2 3.1
2017-Apr-30 05:00 140 15 gusting 19 8.0 3.5
2017-Apr-30 04:00 -7.0
2017-Apr-30 03:00 140 25 gusting 31 7.6 3.9
2017-Apr-30 02:00 140 27 gusting 34 7.6 3.8
2017-Apr-30 01:00 140 27 gusting 34 7.9 4.0
2017-Apr-30 00:00 150 29 gusting 36 8.1 4.0
2017-Apr-29 22:00 140 29 gusting 36 8.2 5.0
2017-Apr-29 21:00 120 38 gusting 48 6.0 5.3
2017-Apr-29 20:00 120 36 gusting 46 5.6 5.2
2017-Apr-29 19:00 120 36 6.0
2017-Apr-29 18:00 120 34 gusting 44 6.2 3.8
2017-Apr-29 17:00 120 33 gusting 40 5.9 3.1
2017-Apr-29 16:00 130 29 gusting 34 6.5 2.2
2017-Apr-29 15:00 140 23 gusting 33 6.5 1.7
2017-Apr-29 14:00 140 23 gusting 29 6.8 1.5
2017-Apr-29 13:00 130 23 gusting 27 7.8 1.0
2017-Apr-29 12:00 130 21 gusting 25 7.8 0.7
2017-Apr-29 11:00 140 17 gusting 21 7.8 0.4
2017-Apr-29 10:00 130 11 gusting 13 7.5 0.3
2017-Apr-29 09:00 140 7 gusting 9 7.5 0.3
2017-Apr-29 08:00 100 7 gusting 7 7.6 0.3
2017-Apr-29 07:00 080 5 gusting 7 7.7 0.3
2017-Apr-29 06:00 070 1 gusting 3 7.6 0.3
2017-Apr-29 05:00 310 1 gusting 3 7.7 0.3
2017-Apr-29 04:00 340 3 gusting 3 7.7 0.3
2017-Apr-29 03:00 290 1 gusting 3 7.8 0.3
2017-Apr-29 02:00 290 1 gusting 3 8.1 0.3
2017-Apr-29 01:00 260 1 gusting 1 9.1 0.3
2017-Apr-29 00:00 010 1 gusting 1 8.7 0.3
2017-Apr-28 23:00 030 1 gusting 1 8.5 0.4
2017-Apr-28 22:00 010 1 gusting 3 8.3 0.4
2017-Apr-28 21:00 010 3 gusting 3 8.0 0.4
2017-Apr-28 20:00 320 3 gusting 3 7.9 0.4